Time;durP1;ratioP1;P1;durP2;ratioP2;P2;SDS_P1;SDS_P2;PMS_P1;PMS_P2;Temp;Humidity;BMP_temperature;BMP_pressure;BME280_temperature;BME280_humidity;BME280_pressure;Samples;Min_cycle;Max_cycle;Signal;HPM_P1;HPM_P2
2021/03/12 00:02:22;;;;;;;3.00;1.50;;;12.90;63.10;;;;;;5032762;28;20156;-68
2021/03/12 00:04:48;;;;;;;1.75;0.60;;;12.80;63.30;;;;;;5032998;28;20648;-68
2021/03/12 00:07:13;;;;;;;1.85;1.20;;;12.80;63.10;;;;;;5033076;28;20040;-68
2021/03/12 00:09:39;;;;;;;1.38;0.45;;;12.80;63.10;;;;;;5032970;28;20030;-68
2021/03/12 00:12:07;;;;;;;3.10;1.23;;;12.80;63.10;;;;;;5033059;28;20103;-68
2021/03/12 00:14:33;;;;;;;4.20;1.65;;;12.80;63.10;;;;;;5032893;28;20033;-68
2021/03/12 00:16:58;;;;;;;3.45;1.15;;;12.80;63.20;;;;;;5032202;28;20029;-68
2021/03/12 00:19:24;;;;;;;5.93;1.42;;;12.80;63.10;;;;;;5032775;28;20021;-65
2021/03/12 00:21:50;;;;;;;4.72;2.20;;;12.90;63.10;;;;;;5032604;28;20014;-66
2021/03/12 00:24:16;;;;;;;2.70;0.95;;;12.80;63.20;;;;;;5014998;28;20352;-65
2021/03/12 00:26:42;;;;;;;8.10;3.50;;;12.90;63.20;;;;;;5032655;28;20100;-68
2021/03/12 00:29:08;;;;;;;1.95;1.20;;;12.90;63.20;;;;;;5032562;28;20029;-65
2021/03/12 00:31:33;;;;;;;3.15;1.40;;;12.90;62.90;;;;;;5032051;28;20079;-65
2021/03/12 00:33:59;;;;;;;1.65;0.68;;;12.90;62.80;;;;;;5032666;28;20087;-65
2021/03/12 00:36:25;;;;;;;2.45;0.90;;;12.90;62.60;;;;;;5032496;28;20021;-65
2021/03/12 00:38:51;;;;;;;2.00;1.15;;;12.90;62.50;;;;;;5032799;28;20075;-67
2021/03/12 00:41:17;;;;;;;10.43;3.42;;;12.80;62.30;;;;;;5032767;28;20025;-67
2021/03/12 00:43:43;;;;;;;4.70;1.73;;;12.80;62.40;;;;;;5032712;28;20029;-67
2021/03/12 00:46:10;;;;;;;4.80;1.60;;;12.80;62.30;;;;;;5032570;28;20041;-67
2021/03/12 00:48:36;;;;;;;1.55;0.55;;;12.80;62.40;;;;;;5034374;28;20029;-67
2021/03/12 00:51:03;;;;;;;1.42;0.55;;;12.80;62.30;;;;;;5036224;28;20037;-67
2021/03/12 00:53:30;;;;;;;1.23;0.60;;;12.80;62.50;;;;;;5036500;28;20049;-67
2021/03/12 00:55:56;;;;;;;1.48;0.60;;;12.70;62.40;;;;;;5036460;28;20471;-67
2021/03/12 00:58:23;;;;;;;1.42;0.52;;;12.70;62.30;;;;;;5036376;28;20026;-67
2021/03/12 01:00:49;;;;;;;1.20;0.40;;;12.60;62.10;;;;;;5036161;28;20042;-67
2021/03/12 01:03:16;;;;;;;2.63;0.50;;;12.50;62.00;;;;;;5035064;28;20032;-67
2021/03/12 01:05:42;;;;;;;3.03;0.60;;;12.50;62.20;;;;;;5036304;28;20030;-65
2021/03/12 01:08:08;;;;;;;0.93;0.30;;;12.50;62.30;;;;;;5036203;28;20026;-64
2021/03/12 01:10:35;;;;;;;1.35;0.77;;;12.40;62.10;;;;;;5035826;28;20037;-65
2021/03/12 01:13:01;;;;;;;0.43;0.30;;;12.40;62.20;;;;;;5035891;28;20029;-66
2021/03/12 01:15:27;;;;;;;1.77;0.50;;;12.40;62.40;;;;;;5035753;28;20037;-67
2021/03/12 01:17:54;;;;;;;1.67;0.50;;;12.30;62.10;;;;;;5036044;28;20024;-64
2021/03/12 01:20:26;;;;;;;2.25;0.40;;;12.30;62.20;;;;;;5035995;28;20041;-64
2021/03/12 01:22:55;;;;;;;0.82;0.28;;;12.30;62.10;;;;;;5035928;28;20060;-64
2021/03/12 01:25:25;;;;;;;0.95;0.68;;;12.30;62.30;;;;;;5035754;28;20024;-64
2021/03/12 01:27:51;;;;;;;2.35;0.40;;;12.30;62.00;;;;;;5035918;28;20475;-64
2021/03/12 01:30:20;;;;;;;2.20;0.50;;;12.30;62.00;;;;;;5035771;28;20029;-67
2021/03/12 01:32:46;;;;;;;0.52;0.30;;;12.30;62.10;;;;;;5035822;28;20021;-67
2021/03/12 01:35:13;;;;;;;1.45;0.50;;;12.30;62.10;;;;;;5035712;28;20383;-68
2021/03/12 01:37:39;;;;;;;2.45;0.85;;;12.30;62.10;;;;;;5034665;28;20033;-68
2021/03/12 01:40:07;;;;;;;3.75;0.63;;;12.20;61.90;;;;;;5035710;28;20026;-68
2021/03/12 01:42:33;;;;;;;0.82;0.40;;;12.20;61.70;;;;;;5035607;28;20421;-68
2021/03/12 01:44:59;;;;;;;1.90;0.40;;;12.20;61.70;;;;;;5035401;28;20105;-68
2021/03/12 01:47:25;;;;;;;2.88;0.88;;;12.20;61.70;;;;;;5035542;28;20030;-69
2021/03/12 01:49:51;;;;;;;3.70;0.50;;;12.20;61.60;;;;;;5035338;28;20068;-68
2021/03/12 01:52:17;;;;;;;1.92;0.63;;;12.20;61.70;;;;;;5034183;28;20022;-70
2021/03/12 01:54:43;;;;;;;2.33;0.77;;;12.20;61.60;;;;;;5035392;28;20650;-70
2021/03/12 01:57:08;;;;;;;2.33;0.80;;;12.20;61.30;;;;;;5033810;28;20105;-70
2021/03/12 01:59:34;;;;;;;3.50;0.60;;;12.20;61.30;;;;;;5033608;28;20100;-70
2021/03/12 02:02:00;;;;;;;0.98;0.45;;;12.10;61.10;;;;;;5016662;28;20421;-70
2021/03/12 02:04:26;;;;;;;1.65;0.70;;;12.10;61.10;;;;;;5034793;28;20125;-71
2021/03/12 02:06:52;;;;;;;4.82;0.63;;;12.10;61.10;;;;;;5034452;28;20383;-72
2021/03/12 02:09:19;;;;;;;1.67;0.60;;;12.10;60.70;;;;;;5035051;28;20079;-71
2021/03/12 02:12:02;;;;;;;3.10;0.65;;;12.10;60.90;;;;;;5035038;28;20022;-72
2021/03/12 02:14:36;;;;;;;3.20;0.73;;;12.10;60.70;;;;;;5034366;28;20383;-72
2021/03/12 02:17:27;;;;;;;0.93;0.50;;;12.10;60.80;;;;;;5034917;28;20018;-72
2021/03/12 02:20:08;;;;;;;1.08;0.57;;;12.10;60.90;;;;;;5034916;28;20025;-73
2021/03/12 02:22:36;;;;;;;4.05;0.80;;;12.10;60.90;;;;;;5034826;28;20048;-71
2021/03/12 02:25:10;;;;;;;2.95;0.40;;;12.10;60.80;;;;;;5034840;28;20026;-70
2021/03/12 02:27:36;;;;;;;;;;;12.10;60.90;;;;;;5035227;28;20021;-69
2021/03/12 02:30:05;;;;;;;1.45;0.40;;;12.10;60.70;;;;;;5034581;28;19931;-69
2021/03/12 02:32:35;;;;;;;0.45;0.22;;;12.00;61.10;;;;;;5034657;28;20490;-68
2021/03/12 02:35:11;;;;;;;2.65;0.65;;;11.90;60.90;;;;;;5034625;28;20060;-69
2021/03/12 02:37:37;;;;;;;2.10;0.45;;;11.90;61.60;;;;;;5033922;28;20446;-69
2021/03/12 02:40:06;;;;;;;2.17;0.40;;;11.80;61.00;;;;;;5034317;28;20084;-69
2021/03/12 02:42:33;;;;;;;0.85;0.35;;;11.70;60.90;;;;;;5034396;28;20018;-69
2021/03/12 02:45:01;;;;;;;2.75;0.68;;;11.70;61.40;;;;;;5034226;28;20025;-69
2021/03/12 02:47:29;;;;;;;1.85;0.50;;;11.70;62.20;;;;;;5034330;28;20025;-69
2021/03/12 02:49:56;;;;;;;3.05;0.50;;;11.60;61.20;;;;;;5034181;28;20092;-69
2021/03/12 02:52:23;;;;;;;0.55;0.20;;;11.60;61.40;;;;;;5034249;28;20033;-69
2021/03/12 02:54:49;;;;;;;1.17;0.60;;;11.50;61.00;;;;;;5033638;28;20029;-69
2021/03/12 02:57:21;;;;;;;1.60;0.28;;;11.50;61.10;;;;;;5033953;28;20387;-70
2021/03/12 02:59:50;;;;;;;0.25;0.17;;;11.50;61.20;;;;;;5033891;28;20037;-71
2021/03/12 03:02:18;;;;;;;1.13;0.40;;;11.40;61.40;;;;;;5034078;28;20168;-70
2021/03/12 03:04:46;;;;;;;1.23;0.40;;;11.50;61.70;;;;;;5033097;28;20053;-70
2021/03/12 03:07:13;;;;;;;0.40;0.32;;;11.50;61.40;;;;;;5035403;28;20021;-71
2021/03/12 03:09:41;;;;;;;1.30;0.40;;;11.40;60.70;;;;;;5034006;28;20060;-71
2021/03/12 03:12:09;;;;;;;1.48;0.30;;;11.50;60.90;;;;;;5033892;28;20021;-70
2021/03/12 03:14:35;;;;;;;1.40;0.40;;;11.50;60.70;;;;;;5033200;28;20034;-72
2021/03/12 03:17:04;;;;;;;1.05;0.50;;;11.50;60.50;;;;;;5034136;28;20116;-70
2021/03/12 03:19:32;;;;;;;1.40;0.95;;;11.40;60.70;;;;;;5016055;28;20386;-67
2021/03/12 03:21:59;;;;;;;2.50;0.50;;;11.40;61.10;;;;;;5033770;28;20040;-69
2021/03/12 03:24:25;;;;;;;2.05;0.60;;;11.40;61.40;;;;;;5033646;28;20025;-69
2021/03/12 03:26:52;;;;;;;2.55;0.50;;;11.30;61.10;;;;;;5033354;28;20021;-68
2021/03/12 03:29:17;;;;;;;1.13;0.43;;;11.20;62.60;;;;;;5033574;28;20096;-67
2021/03/12 03:31:45;;;;;;;2.50;0.47;;;11.10;63.10;;;;;;5033447;28;20108;-68
2021/03/12 03:34:11;;;;;;;1.63;0.45;;;11.00;63.20;;;;;;5033209;28;20490;-68
2021/03/12 03:36:38;;;;;;;0.75;0.20;;;10.90;63.20;;;;;;5033431;28;20033;-65
2021/03/12 03:39:07;;;;;;;1.05;0.50;;;10.80;63.20;;;;;;5033448;28;20033;-68
2021/03/12 03:41:39;;;;;;;0.77;0.30;;;10.80;63.40;;;;;;5033373;28;20109;-65
2021/03/12 03:44:06;;;;;;;1.40;0.20;;;10.70;63.50;;;;;;5033613;28;20391;-67
2021/03/12 03:46:35;;;;;;;1.55;0.38;;;10.70;63.70;;;;;;5033340;28;20029;-67
2021/03/12 03:49:01;;;;;;;1.38;0.30;;;10.70;63.60;;;;;;5033384;28;20471;-67
2021/03/12 03:51:27;;;;;;;0.90;0.30;;;10.70;63.30;;;;;;5033266;28;20025;-67
2021/03/12 03:53:53;;;;;;;4.13;0.40;;;10.70;63.40;;;;;;5033263;28;20443;-67
2021/03/12 03:56:19;;;;;;;1.75;0.63;;;10.70;63.40;;;;;;5032881;28;20434;-67
2021/03/12 03:58:46;;;;;;;2.58;0.47;;;10.70;63.30;;;;;;5016450;28;20025;-67
2021/03/12 04:01:13;;;;;;;1.55;0.30;;;10.70;62.90;;;;;;5032993;28;20046;-67
2021/03/12 04:03:41;;;;;;;1.38;0.55;;;10.70;62.90;;;;;;5032040;28;20034;-67
2021/03/12 04:06:09;;;;;;;1.85;0.50;;;10.70;62.80;;;;;;5032778;28;20479;-67
2021/03/12 04:08:36;;;;;;;1.52;0.30;;;10.70;62.50;;;;;;5032989;28;20080;-67
2021/03/12 04:11:02;;;;;;;4.32;0.70;;;10.60;62.00;;;;;;5032455;28;20742;-67
2021/03/12 04:13:29;;;;;;;0.73;0.30;;;10.70;62.00;;;;;;5033075;28;20427;-67
2021/03/12 04:15:56;;;;;;;4.45;0.57;;;10.70;62.30;;;;;;5032955;28;20047;-67
2021/03/12 04:18:22;;;;;;;0.22;0.15;;;10.70;62.00;;;;;;5032988;28;20100;-67
2021/03/12 04:20:48;;;;;;;2.47;0.45;;;10.70;61.40;;;;;;5032914;28;20447;-67
2021/03/12 04:23:16;;;;;;;1.27;0.28;;;10.70;61.20;;;;;;5033704;28;20049;-67
2021/03/12 04:25:42;;;;;;;2.20;0.40;;;10.70;60.60;;;;;;5037010;28;20025;-67
2021/03/12 04:28:08;;;;;;;3.50;0.50;;;10.60;60.20;;;;;;5037021;28;20108;-67
2021/03/12 04:30:34;;;;;;;4.90;0.65;;;10.50;59.90;;;;;;5036897;28;20168;-67
2021/03/12 04:33:01;;;;;;;4.80;0.28;;;10.50;60.10;;;;;;5036895;28;20026;-67
2021/03/12 04:35:27;;;;;;;1.10;0.43;;;10.40;59.90;;;;;;5036786;28;20060;-67
2021/03/12 04:37:54;;;;;;;1.95;0.40;;;10.40;59.70;;;;;;5036715;28;20033;-68
2021/03/12 04:40:20;;;;;;;2.78;0.30;;;10.40;59.90;;;;;;5036753;28;20017;-68
2021/03/12 04:42:48;;;;;;;3.45;0.57;;;10.40;59.80;;;;;;5036489;28;20475;-68
2021/03/12 04:45:16;;;;;;;2.17;0.40;;;10.40;59.50;;;;;;5036601;28;20387;-68
2021/03/12 04:47:42;;;;;;;0.70;0.40;;;10.40;59.70;;;;;;5036541;28;20063;-70
2021/03/12 04:50:10;;;;;;;1.60;0.28;;;10.40;59.80;;;;;;5036479;28;20029;-71
2021/03/12 04:52:37;;;;;;;0.70;0.30;;;10.50;59.70;;;;;;5036512;28;20479;-71
2021/03/12 04:55:04;;;;;;;4.00;0.43;;;10.50;59.10;;;;;;5036496;28;20537;-73
2021/03/12 04:57:30;;;;;;;3.38;0.40;;;10.50;59.10;;;;;;5036503;28;20018;-73
2021/03/12 04:59:56;;;;;;;1.58;0.30;;;10.50;58.80;;;;;;5036325;28;20049;-75
2021/03/12 05:02:23;;;;;;;0.98;0.30;;;10.50;58.60;;;;;;5036425;28;20406;-74
2021/03/12 05:04:50;;;;;;;3.05;0.20;;;10.50;58.60;;;;;;5036260;28;20498;-75
2021/03/12 05:07:19;;;;;;;1.35;0.30;;;10.50;58.70;;;;;;5036412;28;20131;-75
2021/03/12 05:09:45;;;;;;;1.85;0.50;;;10.50;58.50;;;;;;5036049;28;20500;-75
2021/03/12 05:12:12;;;;;;;0.75;0.40;;;10.60;58.50;;;;;;5036205;28;20056;-75
2021/03/12 05:14:37;;;;;;;1.88;0.50;;;10.60;58.30;;;;;;5036117;28;20017;-75
2021/03/12 05:17:03;;;;;;;0.95;0.30;;;10.60;58.00;;;;;;5034736;28;20026;-76
2021/03/12 05:19:29;;;;;;;4.63;0.55;;;10.60;57.70;;;;;;5034196;28;20025;-76
2021/03/12 05:21:55;;;;;;;2.58;0.40;;;10.60;57.60;;;;;;5036140;28;20026;-76
2021/03/12 05:24:21;;;;;;;2.95;0.50;;;10.60;57.50;;;;;;5035995;28;20019;-76
2021/03/12 05:26:47;;;;;;;1.20;0.30;;;10.70;57.40;;;;;;5035987;28;20028;-76
2021/03/12 05:29:13;;;;;;;1.45;0.45;;;10.70;57.20;;;;;;5035762;28;20021;-76
2021/03/12 05:31:38;;;;;;;0.63;0.25;;;10.70;56.90;;;;;;5035764;28;20026;-76
2021/03/12 05:34:04;;;;;;;2.17;0.43;;;10.80;57.10;;;;;;5035414;28;20039;-77
2021/03/12 05:36:30;;;;;;;2.05;0.40;;;10.80;56.70;;;;;;5017377;28;20112;-76
2021/03/12 05:38:56;;;;;;;1.08;0.57;;;10.90;56.80;;;;;;5017799;28;20022;-76
2021/03/12 05:41:22;;;;;;;2.08;0.40;;;10.90;56.60;;;;;;5015973;28;20037;-76
2021/03/12 05:43:48;;;;;;;2.30;0.60;;;11.00;56.30;;;;;;5015805;28;20088;-77
2021/03/12 05:46:15;;;;;;;0.73;0.20;;;11.00;56.10;;;;;;5015682;28;20073;-76
2021/03/12 05:48:42;;;;;;;0.77;0.30;;;11.00;56.30;;;;;;4998227;28;20025;-76
2021/03/12 05:51:10;;;;;;;2.47;0.52;;;11.00;55.50;;;;;;5034341;28;20030;-76
2021/03/12 05:53:35;;;;;;;1.75;0.30;;;11.10;55.40;;;;;;5035406;28;20064;-76
2021/03/12 05:56:02;;;;;;;0.63;0.40;;;11.10;55.40;;;;;;5035383;28;20068;-76
2021/03/12 05:58:27;;;;;;;3.80;0.45;;;11.10;55.10;;;;;;5017259;28;20022;-76
2021/03/12 06:00:53;;;;;;;3.40;0.57;;;11.10;55.10;;;;;;5030482;28;20069;-76
2021/03/12 06:03:19;;;;;;;1.17;0.47;;;11.10;55.00;;;;;;5015162;28;20034;-76
2021/03/12 06:05:49;;;;;;;3.40;0.50;;;11.20;55.10;;;;;;5014077;28;20153;-76
2021/03/12 06:08:15;;;;;;;1.92;0.20;;;11.20;54.80;;;;;;5015353;28;20026;-76
2021/03/12 06:10:41;;;;;;;4.57;0.50;;;11.30;55.10;;;;;;5014148;28;20033;-76
2021/03/12 06:13:06;;;;;;;1.05;0.35;;;11.30;55.10;;;;;;5014118;28;20021;-76
2021/03/12 06:15:35;;;;;;;1.20;0.40;;;11.30;55.20;;;;;;5014096;28;20053;-76
2021/03/12 06:18:15;;;;;;;6.15;2.80;;;11.40;55.70;;;;;;5015071;28;20022;-76
2021/03/12 06:20:41;;;;;;;2.80;1.02;;;11.40;54.90;;;;;;5013486;28;20030;-76
2021/03/12 06:23:07;;;;;;;1.10;0.40;;;11.50;54.90;;;;;;5015331;28;20026;-76
2021/03/12 06:25:32;;;;;;;1.48;0.40;;;11.50;54.40;;;;;;5015343;28;20022;-76
2021/03/12 06:28:17;;;;;;;1.20;0.40;;;11.60;54.80;;;;;;5014908;28;20029;-76
2021/03/12 06:30:45;;;;;;;0.70;0.40;;;11.70;54.60;;;;;;5014931;28;20041;-76
2021/03/12 06:33:31;;;;;;;2.67;0.77;;;11.70;54.80;;;;;;5013243;28;20036;-76
2021/03/12 06:35:59;;;;;;;1.17;0.47;;;11.80;54.80;;;;;;5013436;28;20018;-76
2021/03/12 06:38:25;;;;;;;1.02;0.25;;;11.80;54.60;;;;;;5014853;28;20076;-76
2021/03/12 06:40:51;;;;;;;1.23;0.50;;;11.90;54.70;;;;;;5013495;28;20026;-77
2021/03/12 06:43:22;;;;;;;0.80;0.43;;;11.90;54.60;;;;;;5014677;28;20105;-76
2021/03/12 06:45:50;;;;;;;1.95;0.65;;;12.00;54.40;;;;;;5014403;28;20430;-76
2021/03/12 06:48:18;;;;;;;1.73;0.50;;;12.10;54.20;;;;;;5014660;28;20444;-76
2021/03/12 06:50:47;;;;;;;0.98;0.40;;;12.20;54.10;;;;;;5012721;28;20065;-76
2021/03/12 06:53:34;;;;;;;1.83;0.45;;;12.20;54.10;;;;;;5014428;28;20076;-76
2021/03/12 06:56:03;;;;;;;1.30;0.45;;;12.30;53.80;;;;;;5014427;28;20022;-76
2021/03/12 06:58:29;;;;;;;4.72;0.85;;;12.40;53.50;;;;;;5013239;28;20050;-76
2021/03/12 07:00:55;;;;;;;3.45;0.73;;;12.50;53.40;;;;;;5027090;28;20056;-76
2021/03/12 07:03:26;;;;;;;1.15;0.30;;;12.50;52.90;;;;;;5019425;28;20025;-76
2021/03/12 07:06:05;;;;;;;0.98;0.30;;;12.50;52.40;;;;;;5032943;28;20422;-76
2021/03/12 07:08:42;;;;;;;0.93;0.30;;;12.60;52.60;;;;;;5034009;28;20049;-76
2021/03/12 07:11:28;;;;;;;2.95;0.60;;;12.60;52.70;;;;;;5032645;28;20082;-76
2021/03/12 07:13:56;;;;;;;5.68;0.52;;;12.60;52.30;;;;;;5033874;28;20083;-76
2021/03/12 07:16:23;;;;;;;4.32;0.70;;;12.70;52.00;;;;;;5032601;28;20032;-76
2021/03/12 07:18:49;;;;;;;3.22;0.50;;;12.60;51.10;;;;;;5033951;28;20466;-76
2021/03/12 07:21:19;;;;;;;4.45;0.88;;;12.60;51.00;;;;;;5033523;28;20143;-76
2021/03/12 07:23:50;;;;;;;4.00;0.90;;;12.60;50.90;;;;;;5033540;28;20055;-76
2021/03/12 07:26:17;;;;;;;5.75;1.40;;;12.60;51.50;;;;;;5032054;28;20509;-76
2021/03/12 07:28:44;;;;;;;3.25;0.68;;;12.70;52.10;;;;;;5033589;28;20108;-77
2021/03/12 07:31:14;;;;;;;1.75;0.80;;;12.80;51.70;;;;;;5033452;28;20040;-76
2021/03/12 07:33:45;;;;;;;3.13;0.80;;;13.00;51.90;;;;;;5033798;28;20507;-76
2021/03/12 07:36:15;;;;;;;2.38;0.40;;;13.10;51.70;;;;;;5033197;28;20045;-76
2021/03/12 07:38:42;;;;;;;7.18;0.80;;;13.20;50.80;;;;;;5015235;28;20036;-76
2021/03/12 07:41:08;;;;;;;1.83;0.60;;;13.30;50.40;;;;;;5032916;28;20025;-75
2021/03/12 07:43:39;;;;;;;14.25;1.02;;;13.40;49.80;;;;;;5032160;28;20379;-81
2021/03/12 07:46:07;;;;;;;2.25;0.73;;;13.40;49.50;;;;;;5032434;28;20030;-78
2021/03/12 07:48:35;;;;;;;2.25;0.40;;;13.50;49.80;;;;;;5033762;28;20078;-81
2021/03/12 07:51:11;;;;;;;2.53;0.60;;;13.60;49.20;;;;;;5034051;28;20574;-84
2021/03/12 07:53:45;;;;;;;2.33;0.55;;;13.60;48.70;;;;;;5034165;28;20443;-84
2021/03/12 07:56:12;;;;;;;5.18;0.50;;;13.60;48.50;;;;;;5032107;28;20021;-81
2021/03/12 07:58:44;;;;;;;1.30;0.60;;;13.60;48.10;;;;;;5016925;28;20395;-81
2021/03/12 08:01:10;;;;;;;6.32;0.50;;;13.60;48.10;;;;;;5032198;28;20053;-79
2021/03/12 08:03:39;;;;;;;4.95;0.88;;;13.60;48.30;;;;;;5033651;28;20031;-81
2021/03/12 08:06:28;;;;;;;9.00;0.75;;;13.60;48.20;;;;;;5032304;28;20030;-80
2021/03/12 08:08:54;;;;;;;3.40;0.98;;;13.60;47.90;;;;;;5031509;28;20037;-81
2021/03/12 08:11:35;;;;;;;10.23;1.42;;;13.60;48.60;;;;;;5029257;28;20120;-83
2021/03/12 08:14:19;;;;;;;1.58;0.52;;;13.60;48.10;;;;;;5030736;28;20032;-75
2021/03/12 08:16:56;;;;;;;2.00;0.65;;;13.60;47.90;;;;;;5030992;28;20021;-85
2021/03/12 08:19:28;;;;;;;2.92;0.80;;;13.50;47.20;;;;;;5032144;28;20164;-73
2021/03/12 08:21:54;;;;;;;3.28;0.82;;;13.50;47.80;;;;;;5032739;28;20495;-69
2021/03/12 08:24:44;;;;;;;1.77;0.50;;;13.50;47.00;;;;;;5032667;28;20113;-69
2021/03/12 08:27:10;;;;;;;3.33;0.57;;;13.50;47.10;;;;;;5025090;28;20027;-69
2021/03/12 08:29:37;;;;;;;2.30;0.45;;;13.50;47.30;;;;;;5032265;28;20130;-69
2021/03/12 08:32:35;;;;;;;9.48;1.23;;;13.60;47.20;;;;;;5032267;28;20059;-69
2021/03/12 08:35:02;;;;;;;6.85;1.17;;;13.60;47.00;;;;;;5044098;28;20032;-69
2021/03/12 08:37:30;;;;;;;4.68;0.93;;;13.60;46.90;;;;;;5032690;28;20029;-69
2021/03/12 08:40:20;;;;;;;2.63;0.70;;;13.70;46.60;;;;;;5032170;28;20021;-69
2021/03/12 08:43:08;;;;;;;3.45;0.70;;;13.70;46.20;;;;;;5019785;28;20057;-83
2021/03/12 08:45:38;;;;;;;1.58;0.50;;;13.80;45.70;;;;;;5034040;28;20060;-84
2021/03/12 08:48:04;;;;;;;1.13;0.40;;;13.90;46.00;;;;;;5033634;28;20121;-79
2021/03/12 08:50:36;;;;;;;4.18;0.47;;;14.00;45.30;;;;;;5032652;28;20028;-78
2021/03/12 08:53:05;;;;;;;2.97;0.95;;;14.00;45.20;;;;;;5032831;28;20021;-79
2021/03/12 08:55:32;;;;;;;4.40;0.70;;;14.00;45.00;;;;;;5033199;28;20024;-80
2021/03/12 08:58:23;;;;;;;1.75;0.50;;;14.10;44.90;;;;;;5014981;28;20033;-81
2021/03/12 09:00:52;;;;;;;5.95;0.55;;;14.20;45.10;;;;;;5032923;28;20037;-78
2021/03/12 09:03:19;;;;;;;13.88;1.73;;;14.20;45.00;;;;;;5033231;28;20402;-82
2021/03/12 09:05:46;;;;;;;1.35;0.40;;;14.20;45.40;;;;;;5020741;28;20036;-76
2021/03/12 09:08:15;;;;;;;3.88;0.50;;;14.20;44.60;;;;;;5016118;28;20053;-70
2021/03/12 09:10:42;;;;;;;3.13;0.98;;;14.20;44.40;;;;;;5035687;28;20029;-70
2021/03/12 09:13:15;;;;;;;3.35;0.52;;;14.20;44.40;;;;;;5055866;28;20059;-70
2021/03/12 09:15:41;;;;;;;3.75;0.82;;;14.10;42.60;;;;;;5046642;28;20536;-70
2021/03/12 09:18:07;;;;;;;2.33;0.52;;;14.00;42.40;;;;;;5035806;28;20056;-71
2021/03/12 09:20:34;;;;;;;3.03;0.70;;;13.90;42.60;;;;;;5036142;28;20479;-66
2021/03/12 09:23:00;;;;;;;2.75;0.85;;;13.90;43.30;;;;;;5035853;28;20036;-67
2021/03/12 09:25:27;;;;;;;2.67;0.90;;;13.80;43.50;;;;;;5035182;28;20017;-72
2021/03/12 09:28:10;;;;;;;2.67;0.52;;;13.90;43.50;;;;;;5038759;28;20029;-73
2021/03/12 09:30:40;;;;;;;9.23;0.82;;;13.80;43.60;;;;;;5025515;28;20485;-70
2021/03/12 09:33:08;;;;;;;9.05;0.98;;;13.80;44.00;;;;;;5035616;28;20013;-70
2021/03/12 09:35:41;;;;;;;6.38;0.95;;;13.90;43.80;;;;;;5036855;28;20030;-71
2021/03/12 09:38:08;;;;;;;5.90;0.68;;;14.00;43.50;;;;;;5017590;28;20535;-69
2021/03/12 09:40:41;;;;;;;1.13;0.50;;;14.00;44.00;;;;;;5048111;28;20036;-70
2021/03/12 09:43:08;;;;;;;5.40;1.00;;;14.20;43.80;;;;;;5035951;28;20032;-67
2021/03/12 09:45:36;;;;;;;6.90;1.00;;;14.30;43.40;;;;;;5025617;28;20171;-77
2021/03/12 09:48:04;;;;;;;2.85;0.80;;;14.30;42.70;;;;;;5017770;28;20467;-74
2021/03/12 09:50:35;;;;;;;3.00;0.90;;;14.50;43.10;;;;;;5035476;28;20390;-76
2021/03/12 09:53:06;;;;;;;3.97;0.90;;;14.70;43.40;;;;;;5017733;28;20033;-72
2021/03/12 09:55:34;;;;;;;6.10;3.15;;;14.80;42.70;;;;;;5035355;28;20017;-73
2021/03/12 09:58:04;;;;;;;1.60;0.55;;;15.00;42.70;;;;;;5017776;28;20079;-72
2021/03/12 10:00:30;;;;;;;2.28;0.52;;;15.10;42.70;;;;;;5034980;28;20080;-65
2021/03/12 10:02:57;;;;;;;1.67;0.50;;;15.30;42.10;;;;;;5048974;28;20056;-65
2021/03/12 10:05:24;;;;;;;2.20;0.50;;;15.40;41.80;;;;;;5036687;28;20026;-65
2021/03/12 10:07:52;;;;;;;2.45;0.68;;;15.40;41.00;;;;;;5034866;28;20056;-65
2021/03/12 10:10:22;;;;;;;1.90;0.75;;;15.50;40.40;;;;;;5034670;28;20486;-65
2021/03/12 10:12:49;;;;;;;3.33;0.70;;;15.40;39.90;;;;;;5034456;28;20033;-65
2021/03/12 10:15:18;;;;;;;3.75;0.95;;;15.30;40.20;;;;;;5049343;28;20082;-65
2021/03/12 10:17:45;;;;;;;1.60;0.60;;;15.30;39.90;;;;;;5036411;28;20546;-65
2021/03/12 10:20:21;;;;;;;2.78;0.98;;;15.30;40.00;;;;;;5053634;28;20052;-65
2021/03/12 10:22:53;;;;;;;7.05;0.80;;;15.30;40.40;;;;;;5047276;28;20029;-71
2021/03/12 10:25:30;;;;;;;3.58;0.60;;;15.30;40.00;;;;;;5016790;28;20048;-72
2021/03/12 10:27:58;;;;;;;2.92;0.88;;;15.30;39.90;;;;;;5034715;28;20108;-66
2021/03/12 10:30:31;;;;;;;2.47;1.00;;;15.20;39.20;;;;;;5034630;28;20026;-71
2021/03/12 10:33:00;;;;;;;8.13;0.85;;;15.10;38.90;;;;;;5034389;28;20047;-69
2021/03/12 10:35:41;;;;;;;4.95;0.93;;;15.00;39.00;;;;;;5039124;28;20387;-69
2021/03/12 10:38:10;;;;;;;11.50;1.13;;;14.90;39.80;;;;;;5032754;28;20033;-69
2021/03/12 10:40:38;;;;;;;3.92;0.80;;;14.80;39.60;;;;;;5034238;28;20030;-70
2021/03/12 10:43:15;;;;;;;2.97;0.85;;;14.80;39.70;;;;;;5034255;28;20104;-66
2021/03/12 10:45:56;;;;;;;2.55;1.20;;;14.60;39.50;;;;;;5033850;28;20030;-70
2021/03/12 10:48:27;;;;;;;2.25;0.60;;;14.60;40.10;;;;;;5034618;28;20112;-71
2021/03/12 10:50:59;;;;;;;2.58;0.80;;;14.50;40.10;;;;;;5025534;28;20040;-71
2021/03/12 10:53:24;;;;;;;2.83;0.88;;;14.40;39.50;;;;;;5034173;28;20032;-71
2021/03/12 10:56:01;;;;;;;4.72;0.55;;;14.40;40.40;;;;;;5034053;28;20340;-70
2021/03/12 10:58:29;;;;;;;2.00;0.68;;;14.40;40.90;;;;;;5050920;28;20021;-73
2021/03/12 11:01:18;;;;;;;1.83;0.55;;;14.40;40.80;;;;;;5053834;28;20056;-73
2021/03/12 11:03:45;;;;;;;2.83;0.80;;;14.40;40.70;;;;;;5046022;28;20029;-74
2021/03/12 11:06:13;;;;;;;2.50;1.08;;;14.40;40.40;;;;;;4996596;28;20033;-74
2021/03/12 11:08:39;;;;;;;3.25;0.90;;;14.40;40.70;;;;;;5031707;28;20057;-73
2021/03/12 11:11:07;;;;;;;4.28;1.27;;;14.50;40.90;;;;;;5034104;28;20029;-74
2021/03/12 11:13:34;;;;;;;3.05;0.70;;;14.60;40.60;;;;;;5043150;28;20067;-73
2021/03/12 11:15:59;;;;;;;8.55;0.90;;;14.70;39.90;;;;;;5036431;28;20024;-73
2021/03/12 11:18:28;;;;;;;2.67;0.40;;;14.80;40.10;;;;;;5036782;28;20378;-75
2021/03/12 11:20:54;;;;;;;11.80;1.75;;;14.80;40.10;;;;;;5033950;28;20482;-74
2021/03/12 11:23:20;;;;;;;1.90;0.70;;;14.90;38.00;;;;;;5033841;28;20030;-74
2021/03/12 11:25:46;;;;;;;3.58;0.82;;;15.00;39.20;;;;;;5033173;28;20030;-74
2021/03/12 11:28:12;;;;;;;4.07;1.42;;;15.00;38.50;;;;;;5047887;28;20033;-69
2021/03/12 11:30:37;;;;;;;4.97;1.13;;;15.00;38.50;;;;;;5052130;28;20536;-68
2021/03/12 11:33:03;;;;;;;4.00;0.60;;;15.10;38.60;;;;;;5032307;28;20074;-68
2021/03/12 11:35:30;;;;;;;2.85;0.95;;;15.20;37.90;;;;;;5032508;28;20014;-73
2021/03/12 11:37:56;;;;;;;3.88;0.90;;;15.20;37.80;;;;;;5036874;28;20026;-73
2021/03/12 11:40:23;;;;;;;2.58;0.70;;;15.20;38.00;;;;;;5051348;28;20031;-75
2021/03/12 11:42:53;;;;;;;4.22;1.35;;;15.30;37.70;;;;;;5032488;28;20021;-72
2021/03/12 11:45:23;;;;;;;2.47;0.73;;;15.30;37.60;;;;;;5038867;28;20017;-72
2021/03/12 11:47:51;;;;;;;8.80;1.25;;;15.30;37.70;;;;;;5024435;28;20553;-79
2021/03/12 11:50:18;;;;;;;2.55;1.08;;;15.40;38.10;;;;;;5023642;28;20029;-73
2021/03/12 11:52:46;;;;;;;2.13;0.65;;;15.50;37.90;;;;;;5020430;28;20411;-80
2021/03/12 11:55:12;;;;;;;2.22;0.57;;;15.60;36.30;;;;;;5033231;28;20010;-75
2021/03/12 11:57:38;;;;;;;1.35;0.68;;;15.70;36.00;;;;;;5033863;28;20028;-76
2021/03/12 12:00:09;;;;;;;3.22;0.73;;;15.80;35.90;;;;;;5033070;28;20394;-74
2021/03/12 12:02:35;;;;;;;2.78;0.70;;;16.00;35.90;;;;;;5030416;28;20105;-73
2021/03/12 12:05:05;;;;;;;2.35;0.80;;;16.10;34.50;;;;;;5018465;28;20020;-74
2021/03/12 12:07:31;;;;;;;2.95;0.85;;;16.20;34.50;;;;;;5024184;28;20067;-73
2021/03/12 12:09:57;;;;;;;1.33;0.50;;;16.30;34.40;;;;;;5032554;28;20041;-73
2021/03/12 12:12:23;;;;;;;2.67;1.00;;;16.30;34.10;;;;;;5033135;28;20029;-85
2021/03/12 12:14:49;;;;;;;3.00;0.60;;;16.30;33.50;;;;;;5034159;28;20018;-76
2021/03/12 12:17:14;;;;;;;3.50;0.85;;;16.30;33.20;;;;;;5033983;28;20060;-83
2021/03/12 12:19:41;;;;;;;5.78;1.00;;;16.30;33.70;;;;;;5031401;28;20029;-72
2021/03/12 12:22:09;;;;;;;2.40;0.70;;;16.30;33.50;;;;;;5033390;28;20021;-73
2021/03/12 12:24:35;;;;;;;2.85;0.77;;;16.30;33.50;;;;;;5052546;28;20059;-70
2021/03/12 12:27:02;;;;;;;2.55;0.73;;;16.20;33.20;;;;;;5052636;28;20056;-74
2021/03/12 12:29:28;;;;;;;4.30;0.77;;;16.20;33.10;;;;;;5049481;28;20060;-72
2021/03/12 12:31:53;;;;;;;3.45;0.75;;;16.30;33.40;;;;;;5032339;28;20065;-73
2021/03/12 12:34:19;;;;;;;1.77;0.57;;;16.40;33.30;;;;;;5049743;28;20382;-73
2021/03/12 12:36:46;;;;;;;1.88;0.60;;;16.50;33.50;;;;;;5052120;28;20029;-73
2021/03/12 12:39:11;;;;;;;1.55;0.57;;;16.50;31.80;;;;;;5052449;28;20100;-71
2021/03/12 12:41:40;;;;;;;2.25;0.50;;;16.60;32.20;;;;;;5019561;28;20061;-75
2021/03/12 12:44:07;;;;;;;4.75;0.70;;;16.80;32.80;;;;;;5032889;28;20021;-80
2021/03/12 12:46:33;;;;;;;1.65;0.80;;;16.80;31.50;;;;;;5035218;28;20029;-70
2021/03/12 12:48:59;;;;;;;1.10;0.50;;;16.90;31.50;;;;;;5036367;28;20474;-74
2021/03/12 12:51:25;;;;;;;1.70;0.57;;;16.90;31.10;;;;;;5036356;28;20030;-71
2021/03/12 12:53:51;;;;;;;1.70;0.60;;;16.90;32.00;;;;;;5036093;28;20014;-68
2021/03/12 12:56:17;;;;;;;3.35;0.60;;;16.90;31.20;;;;;;5046278;28;20030;-83